Time;durP1;ratioP1;P1;durP2;ratioP2;P2;SDS_P1;SDS_P2;PMS_P1;PMS_P2;Temp;Humidity;BMP_temperature;BMP_pressure;BME280_temperature;BME280_humidity;BME280_pressure;Samples;Min_cycle;Max_cycle;Signal;HPM_P1;HPM_P2
2023/08/04 00:00:29;;;;;;;3.83;1.20;;;13.90;99.90;;;;;;5057245;28;20035;-76
2023/08/04 00:02:54;;;;;;;3.53;1.33;;;13.80;99.90;;;;;;5057215;28;20468;-76
2023/08/04 00:05:20;;;;;;;11.45;1.20;;;13.70;99.90;;;;;;5057408;28;20029;-77
2023/08/04 00:07:46;;;;;;;3.53;1.35;;;13.70;99.90;;;;;;5055858;28;20052;-77
2023/08/04 00:10:12;;;;;;;2.75;1.35;;;13.60;99.90;;;;;;5057115;28;20027;-77
2023/08/04 00:12:37;;;;;;;9.25;1.75;;;13.40;99.90;;;;;;5055706;28;20039;-77
2023/08/04 00:15:05;;;;;;;6.75;1.67;;;13.20;99.90;;;;;;5056564;28;20082;-77
2023/08/04 00:17:33;;;;;;;3.28;1.55;;;13.00;99.90;;;;;;5056960;28;20025;-77
2023/08/04 00:19:59;;;;;;;3.53;1.45;;;12.90;99.90;;;;;;5056898;28;20092;-77
2023/08/04 00:22:26;;;;;;;4.28;1.13;;;12.70;99.90;;;;;;5056887;28;20033;-77
2023/08/04 00:24:52;;;;;;;3.33;1.85;;;12.60;99.90;;;;;;5057065;28;20025;-77
2023/08/04 00:27:18;;;;;;;5.32;1.48;;;12.70;99.90;;;;;;5056499;28;20450;-77
2023/08/04 00:29:43;;;;;;;6.07;1.90;;;12.70;99.90;;;;;;5056966;28;20074;-77
2023/08/04 00:32:09;;;;;;;5.40;1.30;;;12.90;99.90;;;;;;5056329;28;20025;-77
2023/08/04 00:34:34;;;;;;;4.75;1.58;;;13.00;99.90;;;;;;5056359;28;20036;-77
2023/08/04 00:37:00;;;;;;;3.25;1.05;;;13.10;99.90;;;;;;5056849;28;20027;-77
2023/08/04 00:39:26;;;;;;;6.80;1.60;;;13.10;99.90;;;;;;5056551;28;20024;-77
2023/08/04 00:41:51;;;;;;;4.30;1.30;;;13.20;99.90;;;;;;5055204;28;20028;-76
2023/08/04 00:44:17;;;;;;;4.18;1.48;;;13.10;99.90;;;;;;5056482;28;20096;-77
2023/08/04 00:46:43;;;;;;;5.68;1.83;;;13.10;99.90;;;;;;5056399;28;20013;-76
2023/08/04 00:49:09;;;;;;;4.93;1.40;;;13.20;99.90;;;;;;5054709;28;20120;-77
2023/08/04 00:51:36;;;;;;;5.45;1.50;;;13.30;99.90;;;;;;5056275;28;20140;-77
2023/08/04 00:54:03;;;;;;;2.17;1.10;;;13.30;99.90;;;;;;5056300;28;20479;-77
2023/08/04 00:56:31;;;;;;;5.00;1.20;;;13.30;99.90;;;;;;5056146;28;20359;-77
2023/08/04 00:58:58;;;;;;;2.10;1.35;;;13.20;99.90;;;;;;5056121;28;20025;-75
2023/08/04 01:01:23;;;;;;;2.83;1.42;;;13.10;99.90;;;;;;5054782;28;20028;-76
2023/08/04 01:03:51;;;;;;;4.50;1.60;;;13.10;99.90;;;;;;5054898;28;20021;-75
2023/08/04 01:06:31;;;;;;;2.65;1.30;;;13.00;99.90;;;;;;5056305;28;20327;-74
2023/08/04 01:09:23;;;;;;;2.25;1.30;;;13.00;99.90;;;;;;5056359;28;20025;-75
2023/08/04 01:12:03;;;;;;;3.03;1.20;;;13.00;99.90;;;;;;5055889;28;20372;-75
2023/08/04 01:14:30;;;;;;;5.03;1.23;;;12.90;99.90;;;;;;5057078;28;20032;-76
2023/08/04 01:16:55;;;;;;;2.55;1.10;;;12.90;99.90;;;;;;5056609;28;20338;-76
2023/08/04 01:19:21;;;;;;;6.95;1.30;;;12.80;99.90;;;;;;5056155;28;20025;-76
2023/08/04 01:21:46;;;;;;;3.53;1.48;;;12.70;99.90;;;;;;5055652;28;20364;-76
2023/08/04 01:24:12;;;;;;;2.67;1.40;;;12.80;99.90;;;;;;5055663;28;20032;-76
2023/08/04 01:26:46;;;;;;;6.88;1.95;;;12.80;99.90;;;;;;5056130;28;20024;-75
2023/08/04 01:29:13;;;;;;;3.05;1.63;;;12.80;99.90;;;;;;5056091;28;20033;-75
2023/08/04 01:31:40;;;;;;;4.55;1.63;;;12.80;99.90;;;;;;5055517;28;20021;-75
2023/08/04 01:34:06;;;;;;;7.82;1.73;;;12.80;99.90;;;;;;5055460;28;20024;-75
2023/08/04 01:36:32;;;;;;;5.65;1.65;;;12.90;99.90;;;;;;5055574;28;20060;-77
2023/08/04 01:38:58;;;;;;;4.72;2.00;;;12.90;99.90;;;;;;5056008;28;20021;-77
2023/08/04 01:41:24;;;;;;;3.88;1.90;;;12.90;99.90;;;;;;5055433;28;20111;-76
2023/08/04 01:43:50;;;;;;;3.20;1.60;;;12.90;99.90;;;;;;5055650;28;20151;-76
2023/08/04 01:46:15;;;;;;;2.50;1.52;;;12.90;99.90;;;;;;5055351;28;20032;-76
2023/08/04 01:48:41;;;;;;;7.13;1.75;;;12.80;99.90;;;;;;5055483;28;20076;-76
2023/08/04 01:51:07;;;;;;;3.10;1.35;;;12.70;99.90;;;;;;5055149;28;20411;-76
2023/08/04 01:53:33;;;;;;;3.03;1.20;;;12.60;99.90;;;;;;5055702;28;20025;-75
2023/08/04 01:55:58;;;;;;;2.70;1.50;;;12.40;99.90;;;;;;5055399;28;20146;-76
2023/08/04 01:58:24;;;;;;;5.57;1.55;;;12.40;99.90;;;;;;5054827;28;20021;-77
2023/08/04 02:00:51;;;;;;;8.77;2.83;;;12.50;99.90;;;;;;5055285;28;20416;-78
2023/08/04 02:03:16;;;;;;;2.95;1.80;;;12.50;99.90;;;;;;5054989;28;20033;-76
2023/08/04 02:05:48;;;;;;;2.75;1.67;;;12.60;99.90;;;;;;5055152;28;20035;-75
2023/08/04 02:08:13;;;;;;;7.97;1.73;;;12.60;99.90;;;;;;5054871;28;20025;-75
2023/08/04 02:10:49;;;;;;;4.45;1.70;;;12.60;99.90;;;;;;5054851;28;20092;-76
2023/08/04 02:13:15;;;;;;;5.78;1.58;;;12.70;99.90;;;;;;5054940;28;20358;-76
2023/08/04 02:15:40;;;;;;;3.53;1.77;;;12.70;99.90;;;;;;5054847;28;20029;-76
2023/08/04 02:18:06;;;;;;;2.20;1.40;;;12.70;99.90;;;;;;5054738;28;20109;-76
2023/08/04 02:20:31;;;;;;;2.78;1.42;;;12.80;99.90;;;;;;5054927;28;20411;-76
2023/08/04 02:22:57;;;;;;;3.17;1.83;;;12.90;99.90;;;;;;5054889;28;20056;-76
2023/08/04 02:25:23;;;;;;;3.08;1.48;;;12.90;99.90;;;;;;5054866;28;20021;-76
2023/08/04 02:27:49;;;;;;;4.90;1.58;;;12.80;99.90;;;;;;5054566;28;20028;-76
2023/08/04 02:30:15;;;;;;;3.08;1.50;;;12.70;99.90;;;;;;5054641;28;20052;-77
2023/08/04 02:32:40;;;;;;;4.60;1.63;;;12.70;99.90;;;;;;5054130;28;20065;-76
2023/08/04 02:35:06;;;;;;;3.40;1.33;;;12.60;99.90;;;;;;5054954;28;20503;-77
2023/08/04 02:37:32;;;;;;;2.13;1.50;;;12.30;99.90;;;;;;5054598;28;20021;-77
2023/08/04 02:39:58;;;;;;;3.45;1.48;;;12.30;99.90;;;;;;5054254;28;20025;-77
2023/08/04 02:42:24;;;;;;;4.65;1.83;;;12.10;99.90;;;;;;5054540;28;20028;-76
2023/08/04 02:44:54;;;;;;;2.20;1.60;;;12.10;99.90;;;;;;5053131;28;20430;-76
2023/08/04 02:47:20;;;;;;;6.20;1.73;;;12.10;99.90;;;;;;5054017;28;20032;-75
2023/08/04 02:49:46;;;;;;;4.70;1.60;;;12.10;99.90;;;;;;5053895;28;20053;-75
2023/08/04 02:52:14;;;;;;;4.45;1.50;;;12.00;99.90;;;;;;5053974;28;20031;-75
2023/08/04 02:54:42;;;;;;;2.97;1.58;;;12.00;99.90;;;;;;5054795;28;20119;-76
2023/08/04 02:57:07;;;;;;;4.00;1.33;;;12.00;99.90;;;;;;5053920;28;20043;-76
2023/08/04 02:59:33;;;;;;;2.88;1.67;;;11.90;99.90;;;;;;5054764;28;20426;-75
2023/08/04 03:01:59;;;;;;;3.97;1.45;;;11.90;99.90;;;;;;5053663;28;20017;-77
2023/08/04 03:04:24;;;;;;;2.88;1.50;;;11.90;99.90;;;;;;5054200;28;20043;-77
2023/08/04 03:06:50;;;;;;;4.88;1.70;;;12.00;99.90;;;;;;5053893;28;20021;-75
2023/08/04 03:09:15;;;;;;;2.65;1.38;;;12.00;99.90;;;;;;5054053;28;20029;-75
2023/08/04 03:11:42;;;;;;;2.58;1.52;;;12.10;99.90;;;;;;5053670;28;20088;-75
2023/08/04 03:14:08;;;;;;;7.47;1.80;;;12.10;99.90;;;;;;5054071;28;20059;-75
2023/08/04 03:16:33;;;;;;;3.40;1.60;;;12.20;99.90;;;;;;5054155;28;20060;-75
2023/08/04 03:18:59;;;;;;;4.28;1.48;;;12.20;99.90;;;;;;5053980;28;20143;-75
2023/08/04 03:21:24;;;;;;;2.63;1.20;;;12.10;99.90;;;;;;5053719;28;20044;-75
2023/08/04 03:23:50;;;;;;;2.88;1.50;;;12.00;99.90;;;;;;5053610;28;20028;-76
2023/08/04 03:26:15;;;;;;;2.67;1.33;;;11.90;99.90;;;;;;5053054;28;20021;-76
2023/08/04 03:28:41;;;;;;;4.43;1.33;;;11.80;99.90;;;;;;5053804;28;20032;-76
2023/08/04 03:31:07;;;;;;;3.35;1.30;;;11.80;99.90;;;;;;5053404;28;20095;-75
2023/08/04 03:33:33;;;;;;;3.42;1.50;;;11.70;99.90;;;;;;5053807;28;20369;-75
2023/08/04 03:35:58;;;;;;;2.38;1.55;;;11.70;99.90;;;;;;5053773;28;20421;-75
2023/08/04 03:38:24;;;;;;;3.17;1.65;;;11.70;99.90;;;;;;5053750;28;20060;-74
2023/08/04 03:40:50;;;;;;;4.65;2.00;;;11.80;99.90;;;;;;5054039;28;20495;-74
2023/08/04 03:43:15;;;;;;;2.60;1.52;;;11.80;99.90;;;;;;5053490;28;20025;-75
2023/08/04 03:45:41;;;;;;;5.25;1.73;;;11.70;99.90;;;;;;5053494;28;20030;-75
2023/08/04 03:48:07;;;;;;;3.40;1.52;;;11.60;99.90;;;;;;5053044;28;20041;-76
2023/08/04 03:50:32;;;;;;;2.90;1.48;;;11.60;99.90;;;;;;5053751;28;20037;-75
2023/08/04 03:52:58;;;;;;;2.85;1.40;;;11.50;99.90;;;;;;5053329;28;20460;-75
2023/08/04 03:55:24;;;;;;;3.42;1.40;;;11.50;99.90;;;;;;5053394;28;20049;-75
2023/08/04 03:57:49;;;;;;;4.40;1.60;;;11.50;99.90;;;;;;5053364;28;20021;-75
2023/08/04 04:00:15;;;;;;;4.75;1.58;;;11.50;99.90;;;;;;5053615;28;20083;-76
2023/08/04 04:02:41;;;;;;;7.35;2.10;;;11.60;99.90;;;;;;5053294;28;20017;-77
2023/08/04 04:05:07;;;;;;;6.03;1.80;;;11.70;99.90;;;;;;5053554;28;20017;-77
2023/08/04 04:07:32;;;;;;;4.88;1.70;;;11.70;99.90;;;;;;5053274;28;20167;-75
2023/08/04 04:09:58;;;;;;;5.10;1.70;;;11.70;99.90;;;;;;5053475;28;20013;-78
2023/08/04 04:12:23;;;;;;;5.75;1.70;;;11.60;99.90;;;;;;5053459;28;20029;-79
2023/08/04 04:14:49;;;;;;;3.45;1.80;;;11.70;99.90;;;;;;5053674;28;20028;-78
2023/08/04 04:17:15;;;;;;;6.00;1.60;;;11.70;99.90;;;;;;5053169;28;20082;-78
2023/08/04 04:19:41;;;;;;;5.00;1.75;;;11.80;99.90;;;;;;5052878;28;20025;-77
2023/08/04 04:22:08;;;;;;;2.85;1.38;;;11.80;99.90;;;;;;5053868;28;20517;-77
2023/08/04 04:24:34;;;;;;;3.92;1.50;;;11.80;99.90;;;;;;5053117;28;20025;-78
2023/08/04 04:26:59;;;;;;;4.43;1.50;;;11.70;99.90;;;;;;5053052;28;20456;-77
2023/08/04 04:29:25;;;;;;;11.10;1.33;;;11.70;99.90;;;;;;5053094;28;20499;-77
2023/08/04 04:31:51;;;;;;;3.53;1.40;;;11.70;99.90;;;;;;5051984;28;20358;-76
2023/08/04 04:34:17;;;;;;;3.53;1.58;;;11.70;99.90;;;;;;5052992;28;20021;-77
2023/08/04 04:36:43;;;;;;;5.57;1.50;;;11.70;99.90;;;;;;5053326;28;20096;-78
2023/08/04 04:39:09;;;;;;;3.25;1.45;;;11.60;99.90;;;;;;5056045;28;20453;-79
2023/08/04 04:41:34;;;;;;;6.05;1.60;;;11.50;99.90;;;;;;5057085;28;20047;-77
2023/08/04 04:44:01;;;;;;;3.53;1.70;;;11.50;99.90;;;;;;5056505;28;20055;-78
2023/08/04 04:46:27;;;;;;;4.78;1.60;;;11.50;99.90;;;;;;5056402;28;20025;-77
2023/08/04 04:48:53;;;;;;;5.88;1.77;;;11.60;99.90;;;;;;5056185;28;20394;-77
2023/08/04 04:51:19;;;;;;;5.18;1.52;;;11.70;99.90;;;;;;5054938;28;20426;-80
2023/08/04 04:53:44;;;;;;;3.35;1.83;;;11.60;99.90;;;;;;5056471;28;20035;-79
2023/08/04 04:56:10;;;;;;;2.20;1.45;;;11.70;99.90;;;;;;5054935;28;20071;-79
2023/08/04 04:58:36;;;;;;;4.03;1.40;;;11.70;99.90;;;;;;5055649;28;20389;-77
2023/08/04 05:01:05;;;;;;;8.32;1.73;;;11.80;99.90;;;;;;5056028;28;20397;-79
2023/08/04 05:03:30;;;;;;;4.03;1.75;;;11.80;99.90;;;;;;5056284;28;20021;-78
2023/08/04 05:05:56;;;;;;;8.70;1.75;;;11.70;99.90;;;;;;5055983;28;20025;-79
2023/08/04 05:08:22;;;;;;;3.65;1.40;;;11.70;99.90;;;;;;5055927;28;20476;-75
2023/08/04 05:10:51;;;;;;;4.63;1.55;;;11.60;99.90;;;;;;5055901;28;20024;-76
2023/08/04 05:13:17;;;;;;;3.22;1.42;;;11.80;99.90;;;;;;5055914;28;20020;-76
2023/08/04 05:15:42;;;;;;;5.05;1.92;;;11.80;99.90;;;;;;5055836;28;20078;-76
2023/08/04 05:18:08;;;;;;;3.47;1.80;;;11.90;99.90;;;;;;5055814;28;20052;-80
2023/08/04 05:20:34;;;;;;;6.78;2.00;;;12.00;99.90;;;;;;5056291;28;20110;-81
2023/08/04 05:22:59;;;;;;;3.58;1.52;;;12.00;99.90;;;;;;5055979;28;20020;-81
2023/08/04 05:25:25;;;;;;;8.02;1.67;;;12.10;99.90;;;;;;5055840;28;20381;-80
2023/08/04 05:27:50;;;;;;;3.95;1.90;;;12.20;99.90;;;;;;5055854;28;20457;-77
2023/08/04 05:30:16;;;;;;;4.07;2.10;;;12.20;99.90;;;;;;5056011;28;20029;-77
2023/08/04 05:32:42;;;;;;;4.15;1.90;;;12.30;99.90;;;;;;5055488;28;20053;-76
2023/08/04 05:35:09;;;;;;;3.15;1.83;;;12.40;99.90;;;;;;5055320;28;20024;-77
2023/08/04 05:37:35;;;;;;;4.57;2.20;;;12.40;99.90;;;;;;5055316;28;20025;-77
2023/08/04 05:40:02;;;;;;;4.00;2.00;;;12.50;99.90;;;;;;5055540;28;20104;-77
2023/08/04 05:42:28;;;;;;;6.47;2.20;;;12.70;99.90;;;;;;5055133;28;20040;-77
2023/08/04 05:44:53;;;;;;;4.05;2.08;;;12.80;99.90;;;;;;5054771;28;20021;-80
2023/08/04 05:47:20;;;;;;;7.82;2.13;;;12.90;99.90;;;;;;5054607;28;20052;-76
2023/08/04 05:49:47;;;;;;;2.28;1.80;;;13.00;99.90;;;;;;5054265;28;20057;-77
2023/08/04 05:52:13;;;;;;;10.55;2.20;;;13.00;99.90;;;;;;5054842;28;20056;-76
2023/08/04 05:54:38;;;;;;;3.45;1.85;;;13.20;99.90;;;;;;5055703;28;20025;-75
2023/08/04 05:57:04;;;;;;;7.00;2.00;;;13.20;99.90;;;;;;5054902;28;20113;-77
2023/08/04 05:59:30;;;;;;;5.28;2.00;;;13.30;99.90;;;;;;5055089;28;20017;-77
2023/08/04 06:01:56;;;;;;;3.72;2.00;;;13.30;99.90;;;;;;5054946;28;20028;-78
2023/08/04 06:04:21;;;;;;;6.07;2.20;;;13.40;99.90;;;;;;5055027;28;20492;-78
2023/08/04 06:06:47;;;;;;;5.78;2.20;;;13.50;99.90;;;;;;5055007;28;20455;-77
2023/08/04 06:09:12;;;;;;;3.10;2.15;;;13.50;99.90;;;;;;5054608;28;20052;-77
2023/08/04 06:11:38;;;;;;;6.28;2.20;;;13.40;99.90;;;;;;5054296;28;20074;-78
2023/08/04 06:14:04;;;;;;;4.78;2.22;;;13.40;99.90;;;;;;5054499;28;20025;-80
2023/08/04 06:16:30;;;;;;;4.30;2.13;;;13.30;99.90;;;;;;5054502;28;20472;-78
2023/08/04 06:18:58;;;;;;;4.35;1.90;;;13.40;99.90;;;;;;5054464;28;20021;-78
2023/08/04 06:21:23;;;;;;;5.45;1.77;;;13.60;99.90;;;;;;5054346;28;20033;-76
2023/08/04 06:23:49;;;;;;;4.50;1.50;;;13.90;99.90;;;;;;5054384;28;20094;-79
2023/08/04 06:26:14;;;;;;;4.65;1.50;;;14.20;99.90;;;;;;5054074;28;20024;-77
2023/08/04 06:28:40;;;;;;;2.42;1.25;;;14.50;99.90;;;;;;5054404;28;20016;-74
2023/08/04 06:31:06;;;;;;;3.85;1.52;;;14.80;99.90;;;;;;5054114;28;20017;-73
2023/08/04 06:33:32;;;;;;;2.50;1.50;;;15.10;99.90;;;;;;5054162;28;20055;-73
2023/08/04 06:35:59;;;;;;;6.38;2.17;;;15.40;99.90;;;;;;5054122;28;20462;-77
2023/08/04 06:38:24;;;;;;;5.20;2.00;;;15.50;99.90;;;;;;5054054;28;20520;-80
2023/08/04 06:40:50;;;;;;;3.22;1.63;;;15.60;99.90;;;;;;5054118;28;20021;-80
2023/08/04 06:43:16;;;;;;;4.85;1.50;;;15.70;99.90;;;;;;5054058;28;20025;-77
2023/08/04 06:45:41;;;;;;;3.22;1.73;;;15.70;99.90;;;;;;5054364;28;20106;-76
2023/08/04 06:48:07;;;;;;;3.63;1.30;;;15.70;99.90;;;;;;5053986;28;20124;-78
2023/08/04 06:50:33;;;;;;;5.80;1.80;;;15.70;99.90;;;;;;5054381;28;20021;-78
2023/08/04 06:52:58;;;;;;;3.85;1.63;;;15.80;99.90;;;;;;5054398;28;20547;-77
2023/08/04 06:55:24;;;;;;;5.13;2.05;;;15.90;99.90;;;;;;5053704;28;20037;-79
2023/08/04 06:57:50;;;;;;;6.32;1.80;;;16.00;99.90;;;;;;5054027;28;20020;-79
2023/08/04 07:00:17;;;;;;;8.45;1.75;;;16.20;99.90;;;;;;5053481;28;20028;-78
2023/08/04 07:02:48;;;;;;;4.63;1.55;;;16.40;99.90;;;;;;5054402;28;20029;-77
2023/08/04 07:05:15;;;;;;;4.25;1.50;;;16.50;99.90;;;;;;5053885;28;20073;-77
2023/08/04 07:07:40;;;;;;;3.97;1.10;;;16.70;99.90;;;;;;5053846;28;20398;-77
2023/08/04 07:10:06;;;;;;;4.35;1.00;;;16.80;99.90;;;;;;5054077;28;20095;-78
2023/08/04 07:12:33;;;;;;;4.10;1.15;;;16.80;99.90;;;;;;5053662;28;20103;-78
2023/08/04 07:14:59;;;;;;;3.50;1.30;;;16.80;99.90;;;;;;5053668;28;20033;-78
2023/08/04 07:17:24;;;;;;;3.15;1.08;;;16.80;99.90;;;;;;5053933;28;20047;-78
2023/08/04 07:19:50;;;;;;;7.22;1.13;;;16.90;99.90;;;;;;5053385;28;20381;-77
2023/08/04 07:22:15;;;;;;;3.40;0.75;;;17.10;99.90;;;;;;5053516;28;20029;-78
2023/08/04 07:24:42;;;;;;;1.48;0.75;;;17.20;99.90;;;;;;5052827;28;20029;-75
2023/08/04 07:27:08;;;;;;;4.47;0.93;;;17.20;99.90;;;;;;5053944;28;20033;-76
2023/08/04 07:29:34;;;;;;;2.38;0.70;;;17.20;99.90;;;;;;5053672;28;20438;-74
2023/08/04 07:32:00;;;;;;;2.58;0.85;;;17.20;99.90;;;;;;5053569;28;20067;-77
2023/08/04 07:34:26;;;;;;;4.05;0.93;;;17.20;99.90;;;;;;5053108;28;20072;-75
2023/08/04 07:36:51;;;;;;;2.20;0.85;;;17.40;99.90;;;;;;5053838;28;20426;-74
2023/08/04 07:39:17;;;;;;;3.15;0.93;;;17.50;99.90;;;;;;5053602;28;20024;-75
2023/08/04 07:41:43;;;;;;;2.38;0.82;;;17.80;99.90;;;;;;5053047;28;20396;-78
2023/08/04 07:44:08;;;;;;;2.33;0.52;;;18.00;99.90;;;;;;5053264;28;20070;-78
2023/08/04 07:46:34;;;;;;;1.23;0.50;;;18.20;99.90;;;;;;5053332;28;20462;-77
2023/08/04 07:49:00;;;;;;;1.48;0.60;;;18.40;99.90;;;;;;5053074;28;20047;-74
2023/08/04 07:51:25;;;;;;;1.75;0.60;;;18.50;99.90;;;;;;5053750;28;20032;-77
2023/08/04 07:53:51;;;;;;;2.72;0.70;;;18.60;99.90;;;;;;5053278;28;20021;-78
2023/08/04 07:56:17;;;;;;;3.70;0.60;;;18.70;99.90;;;;;;5053768;28;20029;-76
2023/08/04 07:58:43;;;;;;;2.15;0.60;;;18.80;99.90;;;;;;5053658;28;20025;-74
2023/08/04 08:01:09;;;;;;;2.55;0.80;;;19.00;99.90;;;;;;5053232;28;20100;-74
2023/08/04 08:03:35;;;;;;;3.65;0.40;;;19.20;99.90;;;;;;5053125;28;20049;-73
2023/08/04 08:06:02;;;;;;;2.65;0.60;;;19.30;99.90;;;;;;5053165;28;20025;-73
2023/08/04 08:08:32;;;;;;;3.95;0.80;;;19.50;99.90;;;;;;5051568;28;20027;-76
2023/08/04 08:10:59;;;;;;;6.72;0.63;;;19.60;99.90;;;;;;5053222;28;20020;-74
2023/08/04 08:13:24;;;;;;;6.25;0.70;;;19.40;99.90;;;;;;5055007;28;20032;-77
2023/08/04 08:15:53;;;;;;;4.13;0.90;;;19.40;99.90;;;;;;5056973;28;20077;-78
2023/08/04 08:18:19;;;;;;;2.03;0.70;;;19.20;99.90;;;;;;5057295;28;20057;-78
2023/08/04 08:20:45;;;;;;;2.25;0.70;;;19.20;99.90;;;;;;5056649;28;20064;-78
2023/08/04 08:23:11;;;;;;;3.25;0.75;;;19.30;99.90;;;;;;5057355;28;20033;-77
2023/08/04 08:25:42;;;;;;;3.35;0.80;;;19.40;99.90;;;;;;5056755;28;20021;-78
2023/08/04 08:28:11;;;;;;;1.40;0.70;;;19.50;99.90;;;;;;5055584;28;20104;-78
2023/08/04 08:30:37;;;;;;;2.47;0.70;;;19.60;99.90;;;;;;5056628;28;20017;-75
2023/08/04 08:33:05;;;;;;;3.42;0.82;;;19.80;99.90;;;;;;5056363;28;20359;-78
2023/08/04 08:35:30;;;;;;;2.60;0.55;;;19.90;99.90;;;;;;5057015;28;20346;-75
2023/08/04 08:37:56;;;;;;;3.92;0.63;;;20.00;99.90;;;;;;5055332;28;20024;-78
2023/08/04 08:40:25;;;;;;;2.33;0.55;;;20.10;99.90;;;;;;5056245;28;20448;-76
2023/08/04 08:42:54;;;;;;;2.08;0.77;;;20.10;99.90;;;;;;5056430;28;20025;-76
2023/08/04 08:45:32;;;;;;;3.70;0.60;;;20.10;99.90;;;;;;5056338;28;20049;-77
2023/08/04 08:47:57;;;;;;;6.00;0.70;;;20.10;99.90;;;;;;5055647;28;20041;-78
2023/08/04 08:50:27;;;;;;;0.98;0.60;;;20.20;99.90;;;;;;5056514;28;20103;-77
2023/08/04 08:53:02;;;;;;;2.67;0.50;;;20.00;99.90;;;;;;5056181;28;20052;-81
2023/08/04 08:55:28;;;;;;;1.25;0.68;;;20.00;99.90;;;;;;5056207;28;20094;-74
2023/08/04 08:57:56;;;;;;;3.67;0.88;;;20.10;99.90;;;;;;5056071;28;20446;-78
2023/08/04 09:00:22;;;;;;;3.70;0.60;;;20.40;99.90;;;;;;5056348;28;20021;-76
2023/08/04 09:02:48;;;;;;;1.90;0.70;;;20.50;99.90;;;;;;5056386;28;20555;-79
2023/08/04 09:05:16;;;;;;;5.38;1.10;;;20.50;99.90;;;;;;5056790;28;20016;-78
2023/08/04 09:07:42;;;;;;;1.90;0.63;;;20.60;99.90;;;;;;5055978;28;20025;-75
2023/08/04 09:10:11;;;;;;;2.35;0.70;;;20.60;99.90;;;;;;5056303;28;20025;-74
2023/08/04 09:12:37;;;;;;;3.50;0.73;;;20.70;99.90;;;;;;5055455;28;20040;-77
2023/08/04 09:15:04;;;;;;;1.77;0.70;;;20.70;99.90;;;;;;5056261;28;20159;-77
2023/08/04 09:17:38;;;;;;;4.43;0.68;;;20.70;99.90;;;;;;5055659;28;20061;-79
2023/08/04 09:20:09;;;;;;;2.33;0.60;;;20.50;99.90;;;;;;5056317;28;20025;-78
2023/08/04 09:22:43;;;;;;;7.72;0.73;;;20.40;99.90;;;;;;5055806;28;20465;-78
2023/08/04 09:25:09;;;;;;;2.88;0.65;;;20.60;99.90;;;;;;5054950;28;20088;-74
2023/08/04 09:27:38;;;;;;;2.60;0.77;;;20.60;99.90;;;;;;5055913;28;20568;-76
2023/08/04 09:30:09;;;;;;;4.00;0.57;;;20.80;99.90;;;;;;5055670;28;20028;-78
2023/08/04 09:32:42;;;;;;;1.35;0.50;;;21.20;99.90;;;;;;5055213;28;20061;-78
2023/08/04 09:35:08;;;;;;;2.97;0.68;;;21.40;99.90;;;;;;5056224;28;20087;-78
2023/08/04 09:37:36;;;;;;;2.25;0.70;;;21.20;99.90;;;;;;5055416;28;20025;-76
2023/08/04 09:40:18;;;;;;;1.42;0.57;;;21.20;99.90;;;;;;5055278;28;20412;-78
2023/08/04 09:42:47;;;;;;;1.63;0.50;;;21.40;99.90;;;;;;5055749;28;20032;-76
2023/08/04 09:45:14;;;;;;;3.72;0.77;;;21.40;99.90;;;;;;5055473;28;20032;-76
2023/08/04 09:47:47;;;;;;;1.35;0.70;;;21.80;99.90;;;;;;5055211;28;20445;-75
2023/08/04 09:50:14;;;;;;;4.40;0.50;;;22.10;99.90;;;;;;5055191;28;20365;-80
2023/08/04 09:52:39;;;;;;;2.90;0.50;;;22.10;99.90;;;;;;5055325;28;20327;-80
2023/08/04 09:55:10;;;;;;;1.33;0.60;;;21.50;99.90;;;;;;5055209;28;20032;-74
2023/08/04 09:57:39;;;;;;;;;;;21.10;99.90;;;;;;5055343;28;20025;-77
2023/08/04 10:00:09;;;;;;;2.53;0.75;;;21.10;99.90;;;;;;5053575;28;19908;-77
2023/08/04 10:02:35;;;;;;;2.13;0.60;;;21.30;99.90;;;;;;5054915;28;20025;-78
2023/08/04 10:05:02;;;;;;;0.95;0.50;;;21.20;99.90;;;;;;5054591;28;20029;-80
2023/08/04 10:07:30;;;;;;;2.70;0.88;;;21.20;99.90;;;;;;5055096;28;20031;-76
2023/08/04 10:09:56;;;;;;;3.22;0.70;;;21.40;99.90;;;;;;5055196;28;20025;-79
2023/08/04 10:12:23;;;;;;;1.67;0.70;;;21.70;99.90;;;;;;5055155;28;20353;-79
2023/08/04 10:14:49;;;;;;;1.13;0.60;;;21.30;99.90;;;;;;5054940;28;20323;-73
2023/08/04 10:17:15;;;;;;;1.02;0.55;;;20.80;99.90;;;;;;5054491;28;20024;-76
2023/08/04 10:19:40;;;;;;;1.13;0.60;;;20.80;99.90;;;;;;5054971;28;20446;-76
2023/08/04 10:22:10;;;;;;;3.70;0.65;;;21.40;99.90;;;;;;5054507;28;20057;-77
2023/08/04 10:24:40;;;;;;;3.13;0.50;;;22.00;99.90;;;;;;5053758;28;20404;-76
2023/08/04 10:27:13;;;;;;;0.90;0.60;;;22.50;99.90;;;;;;5055113;28;20025;-77
2023/08/04 10:29:40;;;;;;;1.38;0.60;;;22.20;99.90;;;;;;5054341;28;20090;-76
2023/08/04 10:32:08;;;;;;;1.55;0.43;;;22.10;99.90;;;;;;5054392;28;20450;-78
2023/08/04 10:34:35;;;;;;;0.85;0.50;;;22.00;99.90;;;;;;5054048;28;20017;-78
2023/08/04 10:37:18;;;;;;;1.58;0.57;;;21.90;99.90;;;;;;5053976;28;20029;-78
2023/08/04 10:39:45;;;;;;;1.98;0.63;;;22.20;99.90;;;;;;5054533;28;20017;-76
2023/08/04 10:42:23;;;;;;;2.08;0.50;;;22.40;99.90;;;;;;5054437;28;20442;-74
2023/08/04 10:44:55;;;;;;;3.03;0.55;;;22.80;99.90;;;;;;5054607;28;20021;-77
2023/08/04 10:47:39;;;;;;;2.50;0.73;;;23.20;99.90;;;;;;5054519;28;20024;-78
2023/08/04 10:50:05;;;;;;;1.25;0.60;;;23.10;99.90;;;;;;5053749;28;20103;-76
2023/08/04 10:52:32;;;;;;;3.08;1.00;;;23.10;99.90;;;;;;5054246;28;20051;-77
2023/08/04 10:54:59;;;;;;;3.05;0.50;;;22.90;99.90;;;;;;5054230;28;20051;-77
2023/08/04 10:57:31;;;;;;;1.77;0.60;;;22.50;99.90;;;;;;5053979;28;20025;-76
2023/08/04 10:59:57;;;;;;;4.28;0.90;;;22.70;99.90;;;;;;5054402;28;20096;-76
2023/08/04 11:02:24;;;;;;;3.22;0.88;;;23.00;99.90;;;;;;5054140;28;20501;-76
2023/08/04 11:04:51;;;;;;;6.10;1.27;;;22.90;99.90;;;;;;5053866;28;20083;-76
2023/08/04 11:07:18;;;;;;;2.83;0.70;;;23.00;99.90;;;;;;5053761;28;20028;-77
2023/08/04 11:09:45;;;;;;;1.73;0.57;;;23.00;99.90;;;;;;5053956;28;20070;-77
2023/08/04 11:12:12;;;;;;;3.15;0.75;;;22.60;99.90;;;;;;5053644;28;20134;-76
2023/08/04 11:14:40;;;;;;;2.47;0.75;;;22.10;99.90;;;;;;5053880;28;20369;-77
2023/08/04 11:17:14;;;;;;;1.67;0.50;;;21.90;99.90;;;;;;5054042;28;20021;-78
2023/08/04 11:19:41;;;;;;;1.65;0.60;;;21.60;99.90;;;;;;5053696;28;20029;-77
2023/08/04 11:22:08;;;;;;;1.98;0.40;;;21.70;99.90;;;;;;5053379;28;20040;-76
2023/08/04 11:24:34;;;;;;;1.45;0.70;;;22.00;99.90;;;;;;5053602;28;20032;-80
2023/08/04 11:26:59;;;;;;;2.05;0.68;;;22.00;99.90;;;;;;5053816;28;20025;-78
2023/08/04 11:29:25;;;;;;;3.97;0.80;;;21.80;99.90;;;;;;5053759;28;20025;-76
2023/08/04 11:31:51;;;;;;;1.38;0.40;;;21.70;99.90;;;;;;5053716;28;20511;-79
2023/08/04 11:34:17;;;;;;;1.55;0.40;;;21.80;99.90;;;;;;5053852;28;20060;-76
2023/08/04 11:36:43;;;;;;;1.30;0.60;;;21.60;99.90;;;;;;5053412;28;20365;-76
2023/08/04 11:39:09;;;;;;;1.45;0.50;;;21.40;99.90;;;;;;5053630;28;20021;-77
2023/08/04 11:41:36;;;;;;;2.10;0.50;;;21.40;99.90;;;;;;5053608;28;20021;-77
2023/08/04 11:44:02;;;;;;;2.40;0.50;;;21.30;99.90;;;;;;5053236;28;20021;-77
2023/08/04 11:46:28;;;;;;;3.05;0.70;;;21.20;99.90;;;;;;5052999;28;20445;-76
2023/08/04 11:48:54;;;;;;;1.08;0.50;;;21.00;99.90;;;;;;5056230;28;20068;-76
2023/08/04 11:51:20;;;;;;;1.48;0.40;;;21.00;99.90;;;;;;5057635;28;20033;-77
2023/08/04 11:53:46;;;;;;;0.95;0.52;;;21.00;99.90;;;;;;5057336;28;20047;-75
2023/08/04 11:56:12;;;;;;;2.30;0.40;;;21.10;99.90;;;;;;5057477;28;20058;-78
2023/08/04 11:58:40;;;;;;;2.85;0.47;;;21.20;99.90;;;;;;5057494;28;20021;-77
2023/08/04 12:01:24;;;;;;;1.40;0.52;;;21.00;99.90;;;;;;5055982;28;20025;-79
2023/08/04 12:03:49;;;;;;;1.60;0.50;;;20.80;99.90;;;;;;5057312;28;20450;-78
2023/08/04 12:06:20;;;;;;;1.23;0.60;;;20.70;99.90;;;;;;5057188;28;20036;-79
2023/08/04 12:08:48;;;;;;;;;;;20.60;99.90;;;;;;5057642;28;20048;-75
2023/08/04 12:11:15;;;;;;;1.52;0.55;;;20.60;99.90;;;;;;5056793;28;20389;-79
2023/08/04 12:13:41;;;;;;;0.60;0.40;;;20.70;99.90;;;;;;5057441;28;20029;-77
2023/08/04 12:16:07;;;;;;;1.52;0.50;;;20.70;99.90;;;;;;5056947;28;20111;-77
2023/08/04 12:18:33;;;;;;;1.15;0.32;;;20.80;99.90;;;;;;5056633;28;20488;-78
2023/08/04 12:20:59;;;;;;;2.17;0.70;;;20.80;99.90;;;;;;5055544;28;20029;-78
2023/08/04 12:23:24;;;;;;;1.70;0.60;;;20.90;99.90;;;;;;5056900;28;20031;-78
2023/08/04 12:25:51;;;;;;;1.88;0.70;;;21.00;99.90;;;;;;5056912;28;20027;-78
2023/08/04 12:28:17;;;;;;;1.25;0.50;;;21.10;99.90;;;;;;5056872;28;20017;-79
2023/08/04 12:30:42;;;;;;;1.48;0.70;;;21.20;99.90;;;;;;5056872;28;20017;-77
2023/08/04 12:33:08;;;;;;;1.50;0.50;;;21.40;99.90;;;;;;5056530;28;20424;-76
2023/08/04 12:35:34;;;;;;;0.93;0.50;;;21.50;99.90;;;;;;5056921;28;20024;-77
2023/08/04 12:38:04;;;;;;;1.00;0.60;;;21.50;99.90;;;;;;5057402;28;20047;-79
2023/08/04 12:40:33;;;;;;;1.60;0.70;;;21.60;99.90;;;;;;5056590;28;20356;-76
2023/08/04 12:43:00;;;;;;;1.70;0.60;;;21.60;99.90;;;;;;5056542;28;20083;-77
2023/08/04 12:45:26;;;;;;;2.72;0.50;;;21.70;99.90;;;;;;5056791;28;20051;-77